Time;durP1;ratioP1;P1;durP2;ratioP2;P2;SDS_P1;SDS_P2;PMS_P1;PMS_P2;Temp;Humidity;BMP_temperature;BMP_pressure;BME280_temperature;BME280_humidity;BME280_pressure;Samples;Min_cycle;Max_cycle;Signal;HPM_P1;HPM_P2
2021/11/25 00:01:20;;;;;;;16.40;10.45;;;;;;;;;;5069582;28;20195;-65
2021/11/25 00:03:47;;;;;;;18.23;9.88;;;;;;;;;;5069716;28;20220;-66
2021/11/25 00:06:17;;;;;;;14.85;10.50;;;;;;;;;;5072176;28;20194;-65
2021/11/25 00:08:44;;;;;;;18.23;10.63;;;;;;;;;;5071680;28;20277;-68
2021/11/25 00:11:12;;;;;;;16.58;10.57;;;;;;;;;;5071673;28;20197;-65
2021/11/25 00:13:41;;;;;;;17.20;10.57;;;;;;;;;;5071915;28;20225;-65
2021/11/25 00:16:08;;;;;;;19.52;11.52;;;;;;;;;;5071728;28;20206;-65
2021/11/25 00:18:36;;;;;;;14.30;9.20;;;;;;;;;;5072146;28;20216;-65
2021/11/25 00:21:03;;;;;;;15.48;9.65;;;;;;;;;;5071846;28;20189;-65
2021/11/25 00:23:31;;;;;;;17.70;10.13;;;;;;;;;;5072395;28;20273;-66
2021/11/25 00:25:59;;;;;;;17.80;9.77;;;;;;;;;;5071627;28;20641;-65
2021/11/25 00:28:26;;;;;;;16.60;9.48;;;;;;;;;;5071740;28;20186;-65
2021/11/25 00:30:56;;;;;;;19.10;9.60;;;;;;;;;;5072094;28;20649;-65
2021/11/25 00:33:24;;;;;;;17.52;8.80;;;;;;;;;;5071687;28;20645;-65
2021/11/25 00:35:52;;;;;;;19.88;11.55;;;;;;;;;;5071870;28;20267;-65
2021/11/25 00:38:23;;;;;;;17.85;10.02;;;;;;;;;;5071939;28;20220;-65
2021/11/25 00:40:52;;;;;;;15.82;9.55;;;;;;;;;;5072117;28;20194;-65
2021/11/25 00:43:21;;;;;;;14.25;8.32;;;;;;;;;;5071916;28;20274;-65
2021/11/25 00:45:48;;;;;;;18.20;9.55;;;;;;;;;;5071967;28;20618;-65
2021/11/25 00:48:17;;;;;;;21.30;9.45;;;;;;;;;;5072366;28;20265;-65
2021/11/25 00:50:45;;;;;;;16.70;10.07;;;;;;;;;;5071419;28;20553;-65
2021/11/25 00:53:15;;;;;;;16.77;9.20;;;;;;;;;;5071757;28;20660;-65
2021/11/25 00:55:43;;;;;;;16.73;10.50;;;;;;;;;;5071551;28;20236;-65
2021/11/25 00:58:11;;;;;;;16.48;9.75;;;;;;;;;;5074580;28;20645;-66
2021/11/25 01:00:39;;;;;;;19.48;10.45;;;;;;;;;;5075591;28;20197;-65
2021/11/25 01:03:06;;;;;;;19.17;10.18;;;;;;;;;;5075162;28;20218;-65
2021/11/25 01:05:35;;;;;;;17.45;10.55;;;;;;;;;;5075677;28;20554;-65
2021/11/25 01:08:03;;;;;;;17.10;10.25;;;;;;;;;;5074945;28;20186;-65
2021/11/25 01:10:30;;;;;;;17.30;11.70;;;;;;;;;;5075392;28;20280;-65
2021/11/25 01:13:05;;;;;;;19.42;10.07;;;;;;;;;;5075182;28;20186;-65
2021/11/25 01:15:34;;;;;;;16.85;9.30;;;;;;;;;;5075288;28;20249;-65
2021/11/25 01:18:04;;;;;;;15.35;10.05;;;;;;;;;;5074784;28;20182;-65
2021/11/25 01:20:33;;;;;;;19.52;10.55;;;;;;;;;;5075179;28;20190;-65
2021/11/25 01:23:03;;;;;;;17.75;9.57;;;;;;;;;;5074856;28;20364;-65
2021/11/25 01:25:30;;;;;;;14.95;9.65;;;;;;;;;;5075139;28;20198;-64
2021/11/25 01:27:58;;;;;;;16.63;10.57;;;;;;;;;;5074507;28;20221;-66
2021/11/25 01:30:26;;;;;;;16.85;8.95;;;;;;;;;;5075164;28;20190;-66
2021/11/25 01:32:54;;;;;;;17.38;10.05;;;;;;;;;;5074663;28;20186;-66
2021/11/25 01:35:24;;;;;;;20.25;10.55;;;;;;;;;;5074975;28;20677;-65
2021/11/25 01:37:54;;;;;;;18.40;10.52;;;;;;;;;;5074673;28;20186;-65
2021/11/25 01:40:24;;;;;;;14.23;9.27;;;;;;;;;;5075225;28;20186;-65
2021/11/25 01:42:51;;;;;;;15.30;9.88;;;;;;;;;;5074308;28;20201;-65
2021/11/25 01:45:23;;;;;;;18.50;9.50;;;;;;;;;;5074669;28;20640;-65
2021/11/25 01:47:50;;;;;;;18.80;10.60;;;;;;;;;;5074895;28;20693;-65
2021/11/25 01:50:18;;;;;;;19.20;11.52;;;;;;;;;;5074166;28;20186;-65
2021/11/25 01:52:46;;;;;;;16.60;9.25;;;;;;;;;;5074666;28;20186;-65
2021/11/25 01:55:14;;;;;;;15.70;10.30;;;;;;;;;;5074262;28;20186;-65
2021/11/25 01:57:43;;;;;;;16.88;9.88;;;;;;;;;;5074662;28;20194;-65
2021/11/25 02:00:13;;;;;;;17.77;9.93;;;;;;;;;;5073970;28;20190;-65
2021/11/25 02:02:42;;;;;;;21.42;10.70;;;;;;;;;;5074522;28;20198;-65
2021/11/25 02:05:10;;;;;;;15.40;10.63;;;;;;;;;;5074037;28;20186;-65
2021/11/25 02:07:38;;;;;;;19.40;11.35;;;;;;;;;;5054406;28;20249;-65
2021/11/25 02:10:07;;;;;;;17.38;10.45;;;;;;;;;;5061783;28;20182;-65
2021/11/25 02:12:34;;;;;;;15.57;9.55;;;;;;;;;;5074256;28;20205;-66
2021/11/25 02:15:03;;;;;;;29.20;10.20;;;;;;;;;;5073682;28;20753;-66
2021/11/25 02:17:31;;;;;;;15.68;9.57;;;;;;;;;;5074061;28;20218;-65
2021/11/25 02:19:59;;;;;;;17.25;9.60;;;;;;;;;;5073821;28;20539;-65
2021/11/25 02:22:28;;;;;;;16.13;9.18;;;;;;;;;;5074356;28;20318;-66
2021/11/25 02:24:58;;;;;;;16.70;9.80;;;;;;;;;;5073554;28;20194;-65
2021/11/25 02:27:26;;;;;;;18.92;10.23;;;;;;;;;;5073763;28;20186;-66
2021/11/25 02:29:57;;;;;;;23.27;13.25;;;;;;;;;;5073901;28;20185;-66
2021/11/25 02:32:31;;;;;;;20.50;9.68;;;;;;;;;;5073853;28;20177;-65
2021/11/25 02:34:59;;;;;;;18.95;10.82;;;;;;;;;;5073792;28;20656;-66
2021/11/25 02:37:28;;;;;;;20.73;10.18;;;;;;;;;;5073473;28;20278;-65
2021/11/25 02:39:59;;;;;;;14.07;8.80;;;;;;;;;;5073909;28;20277;-65
2021/11/25 02:42:26;;;;;;;14.93;9.70;;;;;;;;;;5073122;28;20605;-65
2021/11/25 02:44:54;;;;;;;13.23;9.38;;;;;;;;;;5073488;28;20613;-65
2021/11/25 02:47:21;;;;;;;23.77;8.88;;;;;;;;;;5073544;28;20630;-65
2021/11/25 02:49:49;;;;;;;16.45;9.93;;;;;;;;;;5073183;28;20558;-65
2021/11/25 02:52:20;;;;;;;18.23;9.82;;;;;;;;;;5073865;28;20704;-65
2021/11/25 02:54:52;;;;;;;15.00;9.75;;;;;;;;;;5072999;28;20564;-65
2021/11/25 02:57:20;;;;;;;21.15;10.35;;;;;;;;;;5073548;28;20265;-66
2021/11/25 02:59:48;;;;;;;16.20;9.25;;;;;;;;;;5072981;28;20233;-65
2021/11/25 03:02:15;;;;;;;13.68;9.07;;;;;;;;;;5073262;28;20190;-65
2021/11/25 03:04:43;;;;;;;19.30;11.35;;;;;;;;;;5073323;28;20194;-67
2021/11/25 03:07:10;;;;;;;17.38;8.77;;;;;;;;;;5073071;28;20183;-65
2021/11/25 03:09:38;;;;;;;21.45;10.02;;;;;;;;;;5072541;28;20229;-65
2021/11/25 03:12:08;;;;;;;15.38;10.13;;;;;;;;;;5066912;28;20183;-65
2021/11/25 03:14:36;;;;;;;16.80;9.40;;;;;;;;;;5052848;28;20229;-65
2021/11/25 03:17:04;;;;;;;13.70;8.48;;;;;;;;;;5053559;28;20222;-65
2021/11/25 03:19:31;;;;;;;18.25;10.77;;;;;;;;;;5072854;28;20208;-65
2021/11/25 03:22:07;;;;;;;19.77;11.07;;;;;;;;;;5072453;28;20671;-65
2021/11/25 03:24:34;;;;;;;16.95;10.00;;;;;;;;;;5053138;28;20199;-65
2021/11/25 03:27:04;;;;;;;21.60;9.77;;;;;;;;;;5053004;28;20579;-64
2021/11/25 03:29:33;;;;;;;16.70;9.10;;;;;;;;;;5072702;28;20194;-66
2021/11/25 03:32:18;;;;;;;20.33;9.60;;;;;;;;;;5072991;28;20239;-66
2021/11/25 03:34:46;;;;;;;17.75;9.80;;;;;;;;;;5053028;28;20557;-65
2021/11/25 03:37:13;;;;;;;25.17;10.25;;;;;;;;;;5053515;28;20226;-65
2021/11/25 03:39:41;;;;;;;23.52;10.70;;;;;;;;;;5072816;28;20236;-65
2021/11/25 03:42:08;;;;;;;20.95;10.55;;;;;;;;;;5072883;28;20197;-65
2021/11/25 03:44:40;;;;;;;17.75;11.10;;;;;;;;;;5072484;28;20587;-65
2021/11/25 03:47:07;;;;;;;25.38;10.90;;;;;;;;;;5072090;28;20191;-65
2021/11/25 03:49:35;;;;;;;16.50;8.90;;;;;;;;;;5072742;28;20236;-65
2021/11/25 03:52:03;;;;;;;15.73;9.30;;;;;;;;;;5072183;28;20554;-65
2021/11/25 03:54:30;;;;;;;21.17;11.70;;;;;;;;;;5072449;28;20190;-65
2021/11/25 03:56:58;;;;;;;19.98;11.20;;;;;;;;;;5072041;28;20626;-66
2021/11/25 03:59:25;;;;;;;16.33;10.30;;;;;;;;;;5072471;28;20617;-66
2021/11/25 04:01:55;;;;;;;21.17;9.20;;;;;;;;;;5072045;28;20194;-65
2021/11/25 04:04:22;;;;;;;27.65;11.07;;;;;;;;;;5072497;28;20190;-65
2021/11/25 04:06:52;;;;;;;19.15;11.27;;;;;;;;;;5072745;28;20220;-64
2021/11/25 04:09:20;;;;;;;24.60;10.90;;;;;;;;;;5072426;28;20190;-66
2021/11/25 04:11:47;;;;;;;31.10;9.95;;;;;;;;;;5072617;28;20568;-64
2021/11/25 04:14:14;;;;;;;18.63;8.95;;;;;;;;;;5072391;28;20229;-65
2021/11/25 04:16:42;;;;;;;21.35;9.77;;;;;;;;;;5072143;28;20228;-64
2021/11/25 04:19:11;;;;;;;19.50;9.48;;;;;;;;;;5072586;28;20202;-64
2021/11/25 04:21:38;;;;;;;14.85;8.85;;;;;;;;;;5072124;28;20193;-65
2021/11/25 04:24:06;;;;;;;24.13;9.05;;;;;;;;;;5072529;28;20190;-65
2021/11/25 04:26:33;;;;;;;20.70;9.13;;;;;;;;;;5071846;28;20194;-65
2021/11/25 04:29:00;;;;;;;14.18;8.07;;;;;;;;;;5072427;28;20668;-65
2021/11/25 04:37:02;;;;;;;16.10;9.60;;;;;;;;;;5076027;28;20224;-65
2021/11/25 04:39:29;;;;;;;20.60;10.15;;;;;;;;;;5076361;28;20198;-65
2021/11/25 04:41:57;;;;;;;17.95;8.63;;;;;;;;;;5076069;28;20185;-66
2021/11/25 04:44:25;;;;;;;17.10;9.77;;;;;;;;;;5076291;28;20236;-65
2021/11/25 04:46:52;;;;;;;17.15;10.52;;;;;;;;;;5075889;28;20194;-65
2021/11/25 04:49:21;;;;;;;20.95;10.30;;;;;;;;;;5076218;28;20251;-65
2021/11/25 04:51:49;;;;;;;15.48;9.88;;;;;;;;;;5075585;28;20212;-65
2021/11/25 04:54:16;;;;;;;20.55;9.43;;;;;;;;;;5076461;28;20560;-65
2021/11/25 04:56:44;;;;;;;15.45;8.68;;;;;;;;;;5075885;28;20279;-65
2021/11/25 04:59:12;;;;;;;17.23;8.82;;;;;;;;;;5075723;28;20196;-66
2021/11/25 05:01:39;;;;;;;14.77;9.30;;;;;;;;;;5075501;28;20191;-65
2021/11/25 05:04:07;;;;;;;16.48;9.73;;;;;;;;;;5075675;28;20197;-68
2021/11/25 05:06:36;;;;;;;17.60;9.18;;;;;;;;;;5075326;28;20190;-65
2021/11/25 05:09:03;;;;;;;17.05;7.80;;;;;;;;;;5075922;28;20244;-65
2021/11/25 05:11:31;;;;;;;15.30;9.45;;;;;;;;;;5075200;28;20199;-65
2021/11/25 05:13:58;;;;;;;21.05;7.72;;;;;;;;;;5075133;28;20237;-66
2021/11/25 05:16:26;;;;;;;14.23;7.90;;;;;;;;;;5075149;28;20193;-65
2021/11/25 05:18:53;;;;;;;12.70;8.73;;;;;;;;;;5075327;28;20208;-65
2021/11/25 05:21:21;;;;;;;13.18;8.18;;;;;;;;;;5075517;28;20653;-65
2021/11/25 05:23:50;;;;;;;10.05;6.57;;;;;;;;;;5075062;28;20721;-65
2021/11/25 05:26:17;;;;;;;16.88;7.03;;;;;;;;;;5075472;28;20194;-65
2021/11/25 05:28:45;;;;;;;14.65;7.72;;;;;;;;;;5075025;28;20267;-65
2021/11/25 05:31:12;;;;;;;10.65;6.30;;;;;;;;;;5075347;28;20201;-65
2021/11/25 05:33:40;;;;;;;10.95;5.85;;;;;;;;;;5074695;28;20652;-65
2021/11/25 05:36:10;;;;;;;11.07;6.05;;;;;;;;;;5075308;28;20197;-65
2021/11/25 05:38:37;;;;;;;15.10;7.35;;;;;;;;;;5074714;28;20224;-65
2021/11/25 05:41:06;;;;;;;12.35;6.80;;;;;;;;;;5074912;28;20197;-65
2021/11/25 05:43:35;;;;;;;10.95;6.63;;;;;;;;;;5073578;28;20198;-65
2021/11/25 05:46:03;;;;;;;10.82;6.35;;;;;;;;;;5075138;28;20195;-65
2021/11/25 05:48:31;;;;;;;12.25;7.97;;;;;;;;;;5074537;28;20190;-65
2021/11/25 05:50:59;;;;;;;15.38;8.02;;;;;;;;;;5075029;28;20194;-65
2021/11/25 05:53:27;;;;;;;12.00;6.43;;;;;;;;;;5074381;28;20190;-65
2021/11/25 05:55:54;;;;;;;18.38;7.85;;;;;;;;;;5054906;28;20685;-65
2021/11/25 05:58:24;;;;;;;10.63;6.95;;;;;;;;;;5054671;28;20693;-65
2021/11/25 06:00:52;;;;;;;16.27;6.13;;;;;;;;;;5068850;28;20545;-65
2021/11/25 06:03:21;;;;;;;14.57;8.57;;;;;;;;;;5074107;28;20212;-65
2021/11/25 06:05:48;;;;;;;12.40;7.07;;;;;;;;;;5074686;28;20198;-65
2021/11/25 06:08:16;;;;;;;10.95;6.82;;;;;;;;;;5074446;28;20188;-65
2021/11/25 06:10:44;;;;;;;12.57;8.10;;;;;;;;;;5074722;28;20281;-65
2021/11/25 06:13:11;;;;;;;12.43;7.45;;;;;;;;;;5073586;28;20269;-64
2021/11/25 06:15:40;;;;;;;11.48;8.80;;;;;;;;;;5074268;28;20186;-65
2021/11/25 06:18:08;;;;;;;11.32;7.30;;;;;;;;;;5071321;28;20309;-65
2021/11/25 06:20:38;;;;;;;13.60;9.05;;;;;;;;;;5071300;28;20198;-65
2021/11/25 06:23:08;;;;;;;17.88;13.32;;;;;;;;;;5070294;28;20190;-66
2021/11/25 06:25:36;;;;;;;12.13;8.50;;;;;;;;;;5053650;28;20230;-65
2021/11/25 06:28:03;;;;;;;13.35;7.63;;;;;;;;;;5053516;28;20186;-65
2021/11/25 06:30:31;;;;;;;13.77;7.43;;;;;;;;;;5053548;28;20226;-66
2021/11/25 06:33:00;;;;;;;12.07;6.80;;;;;;;;;;5066829;28;20222;-66
2021/11/25 06:35:27;;;;;;;15.90;9.68;;;;;;;;;;5065425;28;20218;-66
2021/11/25 06:37:55;;;;;;;15.68;7.82;;;;;;;;;;5058322;28;20297;-65
2021/11/25 06:40:25;;;;;;;14.32;8.73;;;;;;;;;;5053226;28;20190;-65
2021/11/25 06:42:52;;;;;;;13.48;8.07;;;;;;;;;;5057506;28;20596;-65
2021/11/25 06:45:20;;;;;;;12.50;7.40;;;;;;;;;;5055258;28;20269;-65
2021/11/25 06:47:53;;;;;;;12.60;6.75;;;;;;;;;;5054375;28;20573;-65
2021/11/25 06:50:23;;;;;;;12.48;8.07;;;;;;;;;;5067104;28;20197;-65
2021/11/25 06:52:56;;;;;;;12.57;7.60;;;;;;;;;;5070906;28;20201;-65
2021/11/25 06:55:26;;;;;;;14.00;8.88;;;;;;;;;;5056673;28;20195;-65
2021/11/25 06:57:54;;;;;;;11.35;7.78;;;;;;;;;;5052946;28;20222;-65
2021/11/25 07:00:23;;;;;;;13.02;8.43;;;;;;;;;;5053596;28;20581;-66
2021/11/25 07:02:53;;;;;;;10.35;7.15;;;;;;;;;;5052999;28;20210;-65
2021/11/25 07:05:22;;;;;;;11.48;7.32;;;;;;;;;;5055423;28;20264;-65
2021/11/25 07:07:49;;;;;;;12.52;7.38;;;;;;;;;;5052829;28;20282;-65
2021/11/25 07:10:35;;;;;;;10.65;7.38;;;;;;;;;;5059096;28;20195;-66
2021/11/25 07:13:03;;;;;;;13.35;7.03;;;;;;;;;;5052720;28;20191;-65
2021/11/25 07:15:32;;;;;;;12.18;7.22;;;;;;;;;;5069800;28;20194;-65
2021/11/25 07:18:00;;;;;;;12.85;8.07;;;;;;;;;;5055143;28;20218;-65
2021/11/25 07:20:28;;;;;;;11.55;7.05;;;;;;;;;;5052829;28;20245;-65
2021/11/25 07:22:56;;;;;;;12.13;7.97;;;;;;;;;;5055888;28;20217;-66
2021/11/25 07:25:25;;;;;;;12.98;7.90;;;;;;;;;;5066609;28;20201;-65
2021/11/25 07:27:52;;;;;;;11.15;7.70;;;;;;;;;;5070458;28;20351;-66
2021/11/25 07:30:20;;;;;;;15.60;9.63;;;;;;;;;;5068540;28;20218;-65
2021/11/25 07:32:48;;;;;;;14.88;8.63;;;;;;;;;;5067094;28;20710;-65
2021/11/25 07:35:18;;;;;;;11.68;7.72;;;;;;;;;;5056473;28;20222;-66
2021/11/25 07:37:47;;;;;;;12.15;6.50;;;;;;;;;;5052634;28;20248;-67
2021/11/25 07:40:15;;;;;;;8.55;5.93;;;;;;;;;;5052548;28;20269;-66
2021/11/25 07:42:42;;;;;;;12.35;7.10;;;;;;;;;;5059018;28;20229;-65
2021/11/25 07:45:10;;;;;;;10.18;7.18;;;;;;;;;;5055353;28;20677;-65
2021/11/25 07:47:38;;;;;;;13.07;8.15;;;;;;;;;;5052599;28;20222;-65
2021/11/25 07:50:06;;;;;;;13.73;8.25;;;;;;;;;;5061698;28;20174;-65
2021/11/25 07:52:33;;;;;;;11.68;6.55;;;;;;;;;;5054694;28;20198;-65
2021/11/25 07:55:08;;;;;;;10.15;6.45;;;;;;;;;;5054265;28;20222;-65
2021/11/25 07:57:35;;;;;;;10.55;6.80;;;;;;;;;;5052829;28;20301;-66
2021/11/25 08:00:02;;;;;;;12.38;7.90;;;;;;;;;;5067701;28;20273;-65
2021/11/25 08:02:32;;;;;;;10.23;6.97;;;;;;;;;;5056226;28;20728;-65
2021/11/25 08:04:59;;;;;;;13.05;7.15;;;;;;;;;;5067540;28;20186;-66
2021/11/25 08:07:27;;;;;;;21.98;8.15;;;;;;;;;;5065991;28;20524;-65
2021/11/25 08:09:54;;;;;;;12.63;7.85;;;;;;;;;;5069484;28;20232;-66
2021/11/25 08:12:23;;;;;;;13.48;8.77;;;;;;;;;;5069033;28;20221;-66
2021/11/25 08:14:50;;;;;;;25.20;8.65;;;;;;;;;;5053298;28;20566;-65
2021/11/25 08:17:17;;;;;;;10.55;6.43;;;;;;;;;;5066200;28;20225;-66
2021/11/25 08:19:44;;;;;;;15.20;7.82;;;;;;;;;;5069907;28;20751;-65
2021/11/25 08:22:14;;;;;;;11.05;7.90;;;;;;;;;;5069894;28;20202;-65
2021/11/25 08:24:41;;;;;;;15.13;8.73;;;;;;;;;;5052059;28;20222;-66
2021/11/25 08:27:09;;;;;;;16.90;9.98;;;;;;;;;;5051937;28;20218;-66
2021/11/25 08:29:38;;;;;;;11.65;8.13;;;;;;;;;;5051782;28;20226;-65
2021/11/25 08:32:06;;;;;;;23.92;8.70;;;;;;;;;;5051676;28;20197;-65
2021/11/25 08:34:33;;;;;;;13.13;8.63;;;;;;;;;;5064650;28;20276;-65
2021/11/25 08:37:00;;;;;;;17.33;9.20;;;;;;;;;;5051955;28;20187;-65
2021/11/25 08:39:28;;;;;;;13.35;8.88;;;;;;;;;;5052126;28;20253;-65
2021/11/25 08:41:55;;;;;;;9.93;6.35;;;;;;;;;;5050757;28;20515;-67
2021/11/25 08:44:23;;;;;;;14.20;7.47;;;;;;;;;;5064335;28;20245;-66
2021/11/25 08:46:52;;;;;;;13.57;6.07;;;;;;;;;;5067356;28;20238;-65
2021/11/25 08:49:19;;;;;;;11.45;7.18;;;;;;;;;;5067422;28;20222;-65
2021/11/25 08:51:47;;;;;;;11.75;7.10;;;;;;;;;;5055262;28;20183;-65
2021/11/25 08:54:14;;;;;;;25.38;9.50;;;;;;;;;;5050048;28;20223;-66
2021/11/25 08:56:41;;;;;;;14.00;8.68;;;;;;;;;;5054066;28;20199;-65
2021/11/25 08:59:08;;;;;;;11.52;7.63;;;;;;;;;;5049720;28;20709;-67
2021/11/25 09:01:36;;;;;;;11.45;7.03;;;;;;;;;;5052784;28;20186;-67
2021/11/25 09:04:04;;;;;;;15.07;7.35;;;;;;;;;;5068313;28;20267;-65
2021/11/25 09:06:32;;;;;;;8.93;5.95;;;;;;;;;;5056581;28;20283;-65
2021/11/25 09:09:00;;;;;;;9.80;4.97;;;;;;;;;;5051550;28;20224;-66
2021/11/25 09:11:28;;;;;;;9.88;6.20;;;;;;;;;;5059436;28;20210;-65
2021/11/25 09:13:55;;;;;;;12.52;7.00;;;;;;;;;;5050937;28;20226;-65
2021/11/25 09:16:35;;;;;;;10.38;6.70;;;;;;;;;;5056199;28;20191;-66
2021/11/25 09:19:06;;;;;;;10.43;6.85;;;;;;;;;;5058937;28;20246;-65
2021/11/25 09:21:33;;;;;;;11.48;6.82;;;;;;;;;;5057255;28;20187;-66
2021/11/25 09:24:01;;;;;;;10.60;6.00;;;;;;;;;;5055201;28;20195;-65
2021/11/25 09:26:29;;;;;;;10.30;6.00;;;;;;;;;;5059438;28;20641;-65
2021/11/25 09:29:02;;;;;;;7.65;5.13;;;;;;;;;;5054881;28;20222;-66
2021/11/25 09:31:30;;;;;;;11.10;6.18;;;;;;;;;;5054641;28;20271;-66
2021/11/25 09:33:58;;;;;;;9.05;6.05;;;;;;;;;;5054182;28;20272;-66
2021/11/25 09:36:28;;;;;;;8.55;5.57;;;;;;;;;;5054323;28;20191;-66
2021/11/25 09:38:56;;;;;;;10.30;6.32;;;;;;;;;;5054477;28;20301;-65
2021/11/25 09:41:24;;;;;;;8.23;5.68;;;;;;;;;;5071453;28;20593;-66
2021/11/25 09:43:52;;;;;;;9.68;5.72;;;;;;;;;;5068807;28;20201;-65
2021/11/25 09:46:20;;;;;;;8.35;5.38;;;;;;;;;;5072698;28;20199;-65
2021/11/25 09:48:50;;;;;;;9.57;6.65;;;;;;;;;;5070256;28;20801;-65
2021/11/25 09:51:19;;;;;;;11.07;7.95;;;;;;;;;;5058598;28;20281;-65
2021/11/25 09:53:48;;;;;;;9.60;6.70;;;;;;;;;;5056481;28;20201;-65
2021/11/25 09:56:16;;;;;;;10.50;6.95;;;;;;;;;;5057893;28;20650;-65
2021/11/25 09:58:45;;;;;;;16.30;6.95;;;;;;;;;;5053978;28;20258;-65
2021/11/25 10:01:14;;;;;;;9.40;5.90;;;;;;;;;;5055588;28;20195;-65
2021/11/25 10:03:48;;;;;;;8.68;6.43;;;;;;;;;;5053997;28;20195;-65
2021/11/25 10:06:15;;;;;;;10.95;6.70;;;;;;;;;;5065330;28;20190;-65
2021/11/25 10:08:48;;;;;;;10.82;6.85;;;;;;;;;;5072114;28;20202;-65
2021/11/25 10:11:18;;;;;;;11.57;7.38;;;;;;;;;;5071281;28;20175;-65
2021/11/25 10:13:57;;;;;;;13.70;7.70;;;;;;;;;;5067514;28;20218;-65
2021/11/25 10:16:25;;;;;;;13.20;7.50;;;;;;;;;;5071399;28;20659;-66
2021/11/25 10:18:53;;;;;;;12.93;8.60;;;;;;;;;;5071034;28;20222;-65
2021/11/25 10:21:21;;;;;;;13.43;8.65;;;;;;;;;;5065233;28;20231;-66
2021/11/25 10:23:50;;;;;;;13.10;8.13;;;;;;;;;;5059848;28;20191;-65
2021/11/25 10:26:20;;;;;;;15.52;8.45;;;;;;;;;;5053643;28;20885;-66
2021/11/25 10:28:48;;;;;;;10.63;6.65;;;;;;;;;;5054159;28;20662;-66
2021/11/25 10:31:19;;;;;;;11.85;7.90;;;;;;;;;;5050865;28;20257;-65
2021/11/25 10:33:54;;;;;;;10.80;7.57;;;;;;;;;;5050209;28;20203;-65
2021/11/25 10:41:59;;;;;;;7.75;5.65;;;;;;;;;;5048648;28;20229;-66
2021/11/25 10:44:30;;;;;;;7.40;4.50;;;;;;;;;;5048681;28;21463;-66
2021/11/25 10:47:01;;;;;;;8.48;5.05;;;;;;;;;;5049194;28;20199;-67
2021/11/25 10:49:36;;;;;;;7.90;5.35;;;;;;;;;;5047915;28;20198;-66
2021/11/25 10:52:09;;;;;;;11.05;6.15;;;;;;;;;;5047920;28;20661;-66
2021/11/25 10:54:45;;;;;;;11.07;6.00;;;;;;;;;;5047618;28;20651;-66
2021/11/25 10:57:16;;;;;;;11.00;7.43;;;;;;;;;;5048371;28;20293;-65
2021/11/25 10:59:45;;;;;;;10.35;5.53;;;;;;;;;;5047263;28;20779;-68
2021/11/25 11:02:23;;;;;;;9.18;6.13;;;;;;;;;;5047386;28;20766;-66
2021/11/25 11:04:51;;;;;;;8.25;5.78;;;;;;;;;;5047050;28;20194;-66
2021/11/25 11:07:24;;;;;;;8.80;5.32;;;;;;;;;;5047650;28;20199;-66
2021/11/25 11:09:55;;;;;;;8.63;5.65;;;;;;;;;;5048944;28;20194;-65
2021/11/25 11:12:29;;;;;;;9.02;5.80;;;;;;;;;;5047146;28;20579;-66
2021/11/25 11:15:01;;;;;;;7.88;5.20;;;;;;;;;;5046461;28;20231;-66
2021/11/25 11:17:31;;;;;;;11.23;6.35;;;;;;;;;;5048449;28;20199;-66
2021/11/25 11:20:09;;;;;;;10.65;7.00;;;;;;;;;;5046544;28;20226;-66
2021/11/25 11:22:38;;;;;;;8.88;6.20;;;;;;;;;;5048562;28;20220;-66
2021/11/25 11:25:09;;;;;;;9.50;5.93;;;;;;;;;;5047779;28;20661;-66
2021/11/25 11:27:38;;;;;;;10.88;6.38;;;;;;;;;;5048921;28;20290;-66
2021/11/25 11:30:08;;;;;;;10.68;7.15;;;;;;;;;;5048577;28;20202;-65
2021/11/25 11:32:36;;;;;;;7.28;5.65;;;;;;;;;;5047549;28;20209;-67
2021/11/25 11:35:04;;;;;;;8.75;5.15;;;;;;;;;;5048202;28;20213;-66
2021/11/25 11:37:33;;;;;;;11.55;7.30;;;;;;;;;;5048418;28;20281;-66
2021/11/25 11:40:05;;;;;;;9.00;6.32;;;;;;;;;;5048312;28;21477;-67
2021/11/25 11:42:33;;;;;;;9.55;6.10;;;;;;;;;;5047681;28;20189;-66
2021/11/25 11:45:03;;;;;;;7.78;6.10;;;;;;;;;;5047673;28;20206;-67
2021/11/25 11:47:33;;;;;;;9.02;6.00;;;;;;;;;;5047340;28;20198;-66
2021/11/25 11:50:02;;;;;;;9.90;6.63;;;;;;;;;;5048716;28;20225;-64
2021/11/25 11:52:32;;;;;;;11.45;7.60;;;;;;;;;;5049547;28;20199;-66
2021/11/25 11:55:08;;;;;;;11.75;7.05;;;;;;;;;;5047571;28;20678;-66
2021/11/25 11:57:40;;;;;;;10.07;6.60;;;;;;;;;;5046452;28;20197;-66
2021/11/25 12:00:37;;;;;;;10.63;6.28;;;;;;;;;;5047040;28;20218;-66
2021/11/25 12:03:06;;;;;;;9.60;6.75;;;;;;;;;;5045828;28;20198;-65
2021/11/25 12:05:50;;;;;;;16.17;7.53;;;;;;;;;;5046718;28;20190;-67
2021/11/25 12:08:37;;;;;;;10.57;6.95;;;;;;;;;;5047046;28;20198;-66
2021/11/25 12:11:08;;;;;;;13.38;9.00;;;;;;;;;;5047744;28;20279;-66
2021/11/25 12:13:50;;;;;;;11.70;8.30;;;;;;;;;;5045434;28;20309;-65
2021/11/25 12:16:27;;;;;;;10.07;6.30;;;;;;;;;;5045789;28;20217;-66
2021/11/25 12:18:58;;;;;;;12.32;8.50;;;;;;;;;;5049116;28;20582;-66
2021/11/25 12:21:33;;;;;;;12.70;8.40;;;;;;;;;;5048353;28;20191;-66
2021/11/25 12:24:09;;;;;;;13.50;7.82;;;;;;;;;;5047846;28;20510;-66
2021/11/25 12:26:58;;;;;;;9.82;6.55;;;;;;;;;;5046347;28;20290;-65
2021/11/25 12:29:35;;;;;;;12.98;7.28;;;;;;;;;;5049193;28;20191;-67
2021/11/25 12:32:26;;;;;;;8.88;6.35;;;;;;;;;;5045587;28;20194;-66
2021/11/25 12:34:55;;;;;;;10.60;7.68;;;;;;;;;;5038295;28;20183;-66
2021/11/25 12:37:41;;;;;;;10.88;7.53;;;;;;;;;;5046930;28;20199;-66
2021/11/25 12:40:09;;;;;;;9.73;7.00;;;;;;;;;;5046934;28;20262;-66
2021/11/25 12:42:36;;;;;;;9.85;7.07;;;;;;;;;;5048498;28;20676;-65
2021/11/25 12:45:03;;;;;;;10.55;6.45;;;;;;;;;;5046058;28;20256;-66
2021/11/25 12:47:31;;;;;;;10.77;7.53;;;;;;;;;;5049222;28;20587;-66
2021/11/25 12:50:13;;;;;;;9.32;6.95;;;;;;;;;;5047657;28;20194;-66
2021/11/25 12:52:42;;;;;;;10.70;6.75;;;;;;;;;;5050003;28;20288;-67
2021/11/25 12:55:10;;;;;;;12.23;7.65;;;;;;;;;;5050205;28;20234;-66
2021/11/25 12:57:50;;;;;;;13.82;8.23;;;;;;;;;;5052537;28;20202;-66
2021/11/25 13:00:18;;;;;;;10.45;6.55;;;;;;;;;;5052259;28;20244;-65
2021/11/25 13:02:46;;;;;;;10.82;8.57;;;;;;;;;;5050330;28;20199;-66
2021/11/25 13:05:14;;;;;;;13.35;8.02;;;;;;;;;;5050085;28;20244;-65
2021/11/25 13:07:49;;;;;;;12.65;8.20;;;;;;;;;;5051955;28;20198;-66
2021/11/25 13:10:27;;;;;;;12.75;7.75;;;;;;;;;;5049148;28;20295;-66
2021/11/25 13:13:10;;;;;;;12.52;7.25;;;;;;;;;;5051577;28;20709;-65
2021/11/25 13:15:39;;;;;;;12.60;8.60;;;;;;;;;;5050051;28;20612;-66
2021/11/25 13:18:11;;;;;;;14.40;8.55;;;;;;;;;;5050585;28;20289;-66
2021/11/25 13:20:47;;;;;;;21.55;9.18;;;;;;;;;;5049620;28;20599;-66
2021/11/25 13:23:26;;;;;;;12.90;8.93;;;;;;;;;;5049612;28;20216;-65
2021/11/25 13:26:01;;;;;;;11.38;7.75;;;;;;;;;;5049677;28;20616;-66
2021/11/25 13:28:30;;;;;;;11.88;8.07;;;;;;;;;;5050896;28;20645;-66
2021/11/25 13:31:16;;;;;;;12.32;8.18;;;;;;;;;;5051263;28;20198;-66
2021/11/25 13:33:58;;;;;;;10.02;6.63;;;;;;;;;;5051471;28;20195;-66
2021/11/25 13:36:33;;;;;;;10.32;6.90;;;;;;;;;;5048345;28;20198;-67
2021/11/25 13:39:06;;;;;;;12.07;8.43;;;;;;;;;;5031161;28;20700;-66
2021/11/25 13:41:33;;;;;;;10.52;7.75;;;;;;;;;;5033849;28;20205;-67
2021/11/25 13:44:02;;;;;;;12.32;7.35;;;;;;;;;;5065190;28;20198;-67
2021/11/25 13:46:40;;;;;;;11.98;8.15;;;;;;;;;;5049992;28;20236;-66
2021/11/25 13:49:11;;;;;;;10.27;7.13;;;;;;;;;;5053107;28;20571;-66
2021/11/25 13:51:42;;;;;;;9.65;7.03;;;;;;;;;;5082359;28;20207;-66
2021/11/25 13:54:12;;;;;;;11.45;8.18;;;;;;;;;;5055964;28;20590;-67
2021/11/25 13:56:42;;;;;;;10.55;7.00;;;;;;;;;;5083625;28;20290;-65
2021/11/25 13:59:11;;;;;;;10.88;8.18;;;;;;;;;;5062525;28;20211;-65
2021/11/25 14:01:45;;;;;;;10.15;7.45;;;;;;;;;;5060036;28;20195;-66
2021/11/25 14:04:33;;;;;;;11.15;7.45;;;;;;;;;;5042063;28;20232;-64
2021/11/25 14:07:13;;;;;;;12.90;8.00;;;;;;;;;;5086752;28;20202;-65
2021/11/25 14:09:44;;;;;;;12.07;8.02;;;;;;;;;;5067498;28;20213;-66
2021/11/25 14:12:16;;;;;;;11.40;8.43;;;;;;;;;;5080454;28;20666;-65
2021/11/25 14:14:47;;;;;;;11.52;8.32;;;;;;;;;;5058796;28;20257;-66
2021/11/25 14:17:19;;;;;;;10.68;7.57;;;;;;;;;;5054536;28;20635;-65
2021/11/25 14:19:48;;;;;;;10.73;8.00;;;;;;;;;;5044220;28;20712;-65
2021/11/25 14:22:22;;;;;;;12.82;9.32;;;;;;;;;;5056355;28;20290;-66
2021/11/25 14:24:58;;;;;;;12.77;8.73;;;;;;;;;;5054444;28;20236;-66
2021/11/25 14:30:16;;;;;;;11.05;7.97;;;;;;;;;;5072336;28;20240;-66
2021/11/25 14:32:49;;;;;;;12.52;8.95;;;;;;;;;;5074919;28;20204;-66
2021/11/25 14:35:41;;;;;;;10.55;7.55;;;;;;;;;;5058936;28;20236;-66
2021/11/25 14:38:16;;;;;;;11.02;7.85;;;;;;;;;;5046879;28;20203;-66
2021/11/25 14:40:54;;;;;;;12.07;7.28;;;;;;;;;;5077558;28;20238;-66
2021/11/25 14:43:24;;;;;;;10.30;7.45;;;;;;;;;;5064374;28;20193;-65
2021/11/25 14:46:01;;;;;;;15.25;8.40;;;;;;;;;;5065006;28;20221;-66
2021/11/25 14:48:40;;;;;;;12.05;7.72;;;;;;;;;;5046314;28;20201;-65
2021/11/25 14:51:14;;;;;;;11.30;7.47;;;;;;;;;;5047039;28;20248;-66
2021/11/25 14:53:44;;;;;;;12.38;8.05;;;;;;;;;;5040832;28;20289;-65
2021/11/25 14:56:17;;;;;;;21.75;9.48;;;;;;;;;;5077266;28;20233;-68
2021/11/25 14:58:54;;;;;;;13.65;8.65;;;;;;;;;;5069550;28;20196;-66